Time;durP1;ratioP1;P1;durP2;ratioP2;P2;SDS_P1;SDS_P2;PMS_P1;PMS_P2;Temp;Humidity;BMP_temperature;BMP_pressure;BME280_temperature;BME280_humidity;BME280_pressure;Samples;Min_cycle;Max_cycle;Signal;HPM_P1;HPM_P2
2022/03/26 00:01:24;;;;;;;3.28;2.25;;;;;;;21.74;29.16;99802.34;5132973;28;20126;-61
2022/03/26 00:03:50;;;;;;;3.40;2.10;;;;;;;21.72;29.01;99799.13;5132788;28;20047;-60
2022/03/26 00:06:15;;;;;;;3.17;2.28;;;;;;;21.79;28.79;99799.25;5132665;28;20044;-60
2022/03/26 00:08:41;;;;;;;3.10;2.20;;;;;;;21.75;28.79;99803.94;5132800;28;20563;-62
2022/03/26 00:11:06;;;;;;;3.47;2.38;;;;;;;21.73;28.86;99799.94;5132734;28;20043;-60
2022/03/26 00:13:31;;;;;;;2.70;1.95;;;;;;;21.76;28.65;99797.19;5132638;28;20043;-61
2022/03/26 00:15:57;;;;;;;3.50;2.30;;;;;;;21.74;28.83;99796.78;5132607;28;20463;-60
2022/03/26 00:18:22;;;;;;;3.20;2.00;;;;;;;21.77;28.71;99806.34;5132670;28;20556;-62
2022/03/26 00:20:48;;;;;;;3.33;2.40;;;;;;;21.73;28.90;99802.72;5132526;28;20481;-61
2022/03/26 00:23:13;;;;;;;3.20;2.20;;;;;;;21.80;28.77;99798.06;5132652;28;20055;-61
2022/03/26 00:25:39;;;;;;;3.38;2.30;;;;;;;21.79;28.64;99804.81;5132544;28;20502;-62
2022/03/26 00:28:04;;;;;;;2.90;2.13;;;;;;;21.82;28.69;99803.25;5132432;28;20031;-63
2022/03/26 00:30:31;;;;;;;3.15;2.40;;;;;;;21.83;29.11;99802.88;5132390;28;20039;-60
2022/03/26 00:32:56;;;;;;;3.08;2.10;;;;;;;21.84;28.63;99796.13;5132134;28;20088;-61
2022/03/26 00:35:22;;;;;;;3.08;2.30;;;;;;;21.83;28.91;99807.66;5132549;28;20043;-62
2022/03/26 00:37:48;;;;;;;3.45;2.42;;;;;;;21.80;28.86;99803.66;5132267;28;20134;-62
2022/03/26 00:40:13;;;;;;;2.92;2.00;;;;;;;21.79;28.68;99798.41;5132185;28;20130;-60
2022/03/26 00:42:39;;;;;;;3.05;2.10;;;;;;;21.85;28.70;99803.31;5132365;28;20050;-60
2022/03/26 00:45:06;;;;;;;3.70;2.47;;;;;;;21.83;28.65;99802.88;5131491;27;20046;-62
2022/03/26 00:47:32;;;;;;;2.90;2.10;;;;;;;21.83;28.72;99802.09;5132310;28;20058;-59
2022/03/26 00:49:57;;;;;;;3.00;2.20;;;;;;;21.80;28.64;99802.84;5132149;28;20134;-62
2022/03/26 00:52:23;;;;;;;3.28;2.30;;;;;;;21.77;28.85;99807.16;5132068;28;20126;-61
2022/03/26 00:54:48;;;;;;;3.85;2.35;;;;;;;21.82;28.79;99812.41;5131905;28;20043;-61
2022/03/26 00:57:16;;;;;;;3.30;2.05;;;;;;;21.82;28.78;99804.06;5132083;28;20434;-61
2022/03/26 00:59:42;;;;;;;3.33;2.45;;;;;;;21.82;28.79;99800.47;5131957;28;20054;-63
2022/03/26 01:02:07;;;;;;;2.97;2.20;;;;;;;21.80;28.56;99800.84;5131738;28;20055;-60
2022/03/26 01:04:33;;;;;;;2.72;1.90;;;;;;;21.88;28.61;99808.16;5131860;28;20575;-61
2022/03/26 01:06:58;;;;;;;3.33;1.98;;;;;;;21.87;28.82;99808.53;5131960;28;20043;-60
2022/03/26 01:09:24;;;;;;;3.30;2.30;;;;;;;21.86;28.51;99815.25;5131883;28;20407;-62
2022/03/26 01:11:49;;;;;;;3.15;2.17;;;;;;;21.88;28.69;99802.59;5131838;28;20415;-60
2022/03/26 01:14:15;;;;;;;2.47;1.65;;;;;;;21.92;28.74;99809.00;5131574;28;20050;-60
2022/03/26 01:16:40;;;;;;;2.72;1.92;;;;;;;21.88;28.60;99799.78;5131605;28;20403;-61
2022/03/26 01:19:09;;;;;;;3.20;2.33;;;;;;;21.87;28.43;99805.75;5131748;28;20139;-63
2022/03/26 01:21:34;;;;;;;3.85;2.22;;;;;;;21.87;28.78;99805.75;5131748;28;20047;-60
2022/03/26 01:24:00;;;;;;;2.80;2.00;;;;;;;21.87;28.85;99800.97;5131360;28;20522;-61
2022/03/26 01:26:25;;;;;;;3.05;2.05;;;;;;;21.87;28.52;99798.19;5131516;28;20104;-62
2022/03/26 01:28:51;;;;;;;3.15;2.25;;;;;;;21.86;28.92;99804.09;5131533;28;20430;-60
2022/03/26 01:31:19;;;;;;;3.17;2.17;;;;;;;21.88;28.50;99801.78;5131600;28;20096;-60
2022/03/26 01:33:49;;;;;;;3.00;2.22;;;;;;;21.90;28.67;99799.41;5131602;28;20065;-60
2022/03/26 01:36:15;;;;;;;3.25;2.22;;;;;;;21.85;28.73;99802.50;5131519;28;20039;-62
2022/03/26 01:38:41;;;;;;;2.85;2.03;;;;;;;21.84;28.70;99798.13;5129073;27;20039;-60
2022/03/26 01:41:07;;;;;;;3.45;2.35;;;;;;;21.89;28.47;99792.25;5131392;28;20039;-61
2022/03/26 01:43:33;;;;;;;3.42;2.30;;;;;;;21.88;28.78;99793.44;5131107;28;20150;-60
2022/03/26 01:45:58;;;;;;;3.00;2.20;;;;;;;21.87;28.57;99792.63;5131366;28;20122;-62
2022/03/26 01:48:24;;;;;;;2.80;2.08;;;;;;;21.91;28.36;99796.25;5131368;28;20051;-60
2022/03/26 01:50:49;;;;;;;3.00;2.20;;;;;;;21.91;28.36;99796.25;5131207;28;20039;-61
2022/03/26 01:53:15;;;;;;;3.25;2.30;;;;;;;21.90;28.58;99797.44;5131275;28;20436;-60
2022/03/26 01:55:40;;;;;;;3.22;2.30;;;;;;;21.90;28.47;99789.09;5129789;27;20031;-61
2022/03/26 01:58:05;;;;;;;3.20;2.20;;;;;;;21.89;28.56;99797.81;5131196;28;20078;-61
2022/03/26 02:00:31;;;;;;;2.65;1.83;;;;;;;21.89;28.40;99793.03;5130725;28;20082;-60
2022/03/26 02:02:57;;;;;;;2.78;1.95;;;;;;;21.86;28.64;99788.22;5130949;28;20039;-60
2022/03/26 02:05:22;;;;;;;2.85;2.10;;;;;;;21.94;28.53;99794.72;5131081;28;20043;-60
2022/03/26 02:07:49;;;;;;;3.30;2.30;;;;;;;21.91;28.36;99790.69;5131016;28;20039;-61
2022/03/26 02:10:17;;;;;;;3.20;2.30;;;;;;;21.90;28.60;99785.50;5130761;28;20051;-60
2022/03/26 02:12:45;;;;;;;3.20;2.22;;;;;;;21.95;28.60;99790.75;5130781;28;20530;-60
2022/03/26 02:15:11;;;;;;;2.58;1.92;;;;;;;21.97;28.38;99782.81;5130820;28;20078;-60
2022/03/26 02:17:37;;;;;;;2.90;2.20;;;;;;;21.95;28.47;99785.19;5130814;28;20063;-62
2022/03/26 02:20:06;;;;;;;3.22;2.17;;;;;;;21.92;28.76;99781.16;5130674;28;20440;-60
2022/03/26 02:22:33;;;;;;;3.00;2.10;;;;;;;21.94;28.60;99778.00;5130406;28;20071;-60
2022/03/26 02:24:58;;;;;;;3.22;2.30;;;;;;;21.93;28.32;99788.34;5130769;28;20043;-61
2022/03/26 02:27:26;;;;;;;3.55;2.10;;;;;;;21.90;28.53;99789.09;5130554;28;20359;-60
2022/03/26 02:29:52;;;;;;;2.83;2.03;;;;;;;21.92;28.23;99789.50;5130681;28;20099;-60
2022/03/26 02:32:22;;;;;;;3.13;2.30;;;;;;;21.93;28.60;99785.56;5130709;28;20046;-60
2022/03/26 02:34:48;;;;;;;3.05;2.20;;;;;;;21.91;28.62;99779.53;5130421;28;20103;-62
2022/03/26 02:37:16;;;;;;;3.00;2.15;;;;;;;21.92;28.55;99777.56;5130528;28;20043;-60
2022/03/26 02:39:42;;;;;;;3.70;2.30;;;;;;;21.93;28.30;99777.22;5130336;28;20051;-60
2022/03/26 02:42:07;;;;;;;3.22;2.13;;;;;;;21.97;28.51;99778.06;5130672;28;20043;-60
2022/03/26 02:44:33;;;;;;;3.03;2.08;;;;;;;21.92;28.61;99780.34;5130525;28;20047;-61
2022/03/26 02:46:58;;;;;;;3.28;2.47;;;;;;;21.93;28.25;99780.00;5130403;28;20126;-60
2022/03/26 02:49:24;;;;;;;3.33;2.25;;;;;;;21.92;28.30;99778.34;5130391;28;20134;-60
2022/03/26 02:51:49;;;;;;;3.13;2.10;;;;;;;21.90;28.63;99774.34;5130393;28;20031;-60
2022/03/26 02:54:21;;;;;;;3.45;2.25;;;;;;;21.91;28.37;99779.53;5130143;28;20047;-63
2022/03/26 02:56:48;;;;;;;3.35;2.25;;;;;;;21.91;28.41;99787.09;5130302;28;20105;-60
2022/03/26 02:59:14;;;;;;;2.80;1.90;;;;;;;21.98;28.22;99790.00;5130302;28;20035;-60
2022/03/26 03:01:39;;;;;;;2.95;2.10;;;;;;;21.92;28.17;99786.72;5130229;28;20047;-61
2022/03/26 03:04:05;;;;;;;3.13;2.33;;;;;;;21.96;28.22;99789.56;5130317;28;20039;-60
2022/03/26 03:06:31;;;;;;;2.88;2.05;;;;;;;21.96;28.47;99790.38;5130182;27;20050;-60
2022/03/26 03:08:57;;;;;;;2.80;1.90;;;;;;;21.98;28.21;99795.56;5133785;28;20058;-60
2022/03/26 03:11:22;;;;;;;2.97;2.20;;;;;;;21.97;28.56;99799.53;5133706;28;20055;-62
2022/03/26 03:13:48;;;;;;;3.20;2.20;;;;;;;21.96;28.32;99798.72;5133717;28;20394;-62
2022/03/26 03:16:14;;;;;;;2.80;2.00;;;;;;;21.93;28.48;99793.09;5133646;28;20043;-60
2022/03/26 03:18:39;;;;;;;3.40;2.25;;;;;;;22.01;28.27;99794.03;5133525;28;20043;-60
2022/03/26 03:21:04;;;;;;;3.15;2.20;;;;;;;21.96;28.15;99798.72;5133587;28;20100;-61
2022/03/26 03:23:30;;;;;;;2.70;1.90;;;;;;;21.95;28.42;99797.13;5133581;28;20047;-60
2022/03/26 03:25:55;;;;;;;2.50;1.90;;;;;;;21.93;28.48;99793.09;5133192;28;20039;-62
2022/03/26 03:28:21;;;;;;;3.17;2.00;;;;;;;21.91;28.25;99798.22;5133548;28;20455;-60
2022/03/26 03:30:46;;;;;;;3.17;2.20;;;;;;;21.96;28.36;99795.94;5133483;28;20449;-60
2022/03/26 03:33:11;;;;;;;3.00;2.15;;;;;;;21.92;28.20;99802.63;5133411;28;20054;-61
2022/03/26 03:35:37;;;;;;;2.80;1.92;;;;;;;21.94;28.38;99801.09;5133294;28;20444;-63
2022/03/26 03:38:02;;;;;;;3.53;2.00;;;;;;;21.95;28.11;99802.69;5133335;28;20039;-60
2022/03/26 03:40:28;;;;;;;2.75;1.98;;;;;;;21.96;28.32;99803.50;5133198;28;20053;-61
2022/03/26 03:42:54;;;;;;;3.17;2.03;;;;;;;21.91;28.03;99807.38;5133045;28;20693;-62
2022/03/26 03:45:20;;;;;;;2.42;1.80;;;;;;;21.95;28.05;99801.91;5133195;28;20043;-63
2022/03/26 03:47:46;;;;;;;3.35;2.50;;;;;;;21.91;28.14;99801.81;5133206;28;20047;-60
2022/03/26 03:50:11;;;;;;;2.83;1.80;;;;;;;21.94;28.41;99805.88;5133025;28;20406;-60
2022/03/26 03:52:37;;;;;;;2.95;2.00;;;;;;;21.93;28.10;99807.84;5132943;28;20044;-62
2022/03/26 03:55:04;;;;;;;3.17;2.10;;;;;;;21.93;28.14;99802.28;5133003;28;20388;-61
2022/03/26 03:57:29;;;;;;;3.20;2.30;;;;;;;21.94;28.15;99806.66;5133099;28;20032;-60
2022/03/26 03:59:55;;;;;;;3.60;2.30;;;;;;;21.93;28.08;99812.59;5133057;28;20039;-60
2022/03/26 04:02:21;;;;;;;3.10;2.15;;;;;;;21.92;28.13;99809.00;5132795;28;20054;-62
2022/03/26 04:04:46;;;;;;;3.00;2.10;;;;;;;21.94;28.22;99817.81;5133004;28;20043;-60
2022/03/26 04:07:12;;;;;;;2.88;1.70;;;;;;;21.96;28.01;99815.44;5132914;28;20447;-60
2022/03/26 04:09:37;;;;;;;2.67;1.75;;;;;;;21.95;27.93;99816.63;5132848;28;20050;-60
2022/03/26 04:12:03;;;;;;;3.28;1.92;;;;;;;22.11;27.87;99821.28;5132735;28;20054;-61
2022/03/26 04:14:30;;;;;;;2.80;1.90;;;;;;;22.97;26.83;99821.34;5132666;28;20039;-59
2022/03/26 04:16:55;;;;;;;2.72;1.88;;;;;;;24.02;25.54;99827.63;5132245;28;20050;-59
2022/03/26 04:19:21;;;;;;;2.38;1.80;;;;;;;23.63;25.75;99820.88;5131490;27;20039;-59
2022/03/26 04:21:46;;;;;;;2.90;2.03;;;;;;;23.33;25.97;99827.34;5132261;28;20449;-60
2022/03/26 04:24:12;;;;;;;3.38;2.10;;;;;;;23.09;26.52;99819.50;5132605;28;20070;-59
2022/03/26 04:26:38;;;;;;;2.83;2.03;;;;;;;22.84;26.67;99833.88;5132582;28;20464;-59
2022/03/26 04:29:04;;;;;;;2.67;1.85;;;;;;;22.67;26.87;99838.03;5132424;28;20039;-58
2022/03/26 04:31:29;;;;;;;3.00;2.00;;;;;;;22.51;26.97;99832.66;5132225;28;20047;-58
2022/03/26 04:33:54;;;;;;;2.85;1.90;;;;;;;22.38;27.08;99822.91;5132363;28;20051;-59
2022/03/26 04:36:20;;;;;;;3.20;2.00;;;;;;;22.35;27.20;99831.19;5132227;28;20032;-58
2022/03/26 04:38:47;;;;;;;3.10;1.95;;;;;;;22.28;27.60;99837.47;5132122;28;20091;-60
2022/03/26 04:41:13;;;;;;;2.90;1.75;;;;;;;22.28;27.47;99840.25;5132323;28;20089;-59
2022/03/26 04:43:39;;;;;;;3.30;2.10;;;;;;;22.23;27.30;99829.44;5132101;28;20047;-60
2022/03/26 04:46:04;;;;;;;2.97;2.00;;;;;;;22.20;27.60;99838.53;5132284;28;20035;-59
2022/03/26 04:48:30;;;;;;;2.80;1.80;;;;;;;22.19;27.29;99839.72;5100068;28;20063;-59
2022/03/26 04:50:55;;;;;;;3.13;2.20;;;;;;;22.13;27.71;99832.84;5131987;28;20035;-59
2022/03/26 04:53:21;;;;;;;2.58;1.73;;;;;;;22.15;27.56;99847.22;5131942;28;20096;-61
2022/03/26 04:55:46;;;;;;;3.30;2.00;;;;;;;22.10;27.62;99831.63;5131850;28;20134;-59
2022/03/26 04:58:11;;;;;;;3.17;2.17;;;;;;;22.10;27.71;99839.97;5131951;28;20043;-60
2022/03/26 05:00:37;;;;;;;2.80;2.10;;;;;;;22.08;27.71;99847.91;5131890;28;20074;-61
2022/03/26 05:03:02;;;;;;;3.13;2.15;;;;;;;22.07;27.38;99842.66;5131692;28;20414;-60
2022/03/26 05:05:28;;;;;;;3.00;1.90;;;;;;;22.08;27.58;99841.50;5131803;28;20074;-60
2022/03/26 05:07:55;;;;;;;2.80;2.00;;;;;;;22.05;27.58;99845.03;5131959;28;20099;-61
2022/03/26 05:10:27;;;;;;;2.65;1.88;;;;;;;22.04;27.75;99843.41;5131566;28;20123;-62
2022/03/26 05:12:53;;;;;;;2.58;1.80;;;;;;;22.07;27.74;99848.22;5131836;28;20043;-61
2022/03/26 05:15:23;;;;;;;3.05;2.00;;;;;;;22.04;27.90;99848.97;5131389;28;20055;-59
2022/03/26 05:17:52;;;;;;;3.42;2.10;;;;;;;22.07;27.84;99859.38;5130727;28;20050;-59
2022/03/26 05:20:18;;;;;;;3.13;2.15;;;;;;;22.06;27.84;99855.78;5131726;28;20043;-60
2022/03/26 05:22:45;;;;;;;2.80;1.90;;;;;;;22.06;27.46;99852.19;5131649;28;20062;-59
2022/03/26 05:25:11;;;;;;;3.10;1.88;;;;;;;22.07;27.57;99856.59;5131696;28;20496;-59
2022/03/26 05:27:37;;;;;;;2.65;1.90;;;;;;;22.02;27.51;99859.72;5131613;28;20416;-59
2022/03/26 05:30:07;;;;;;;2.60;1.75;;;;;;;22.05;27.54;99864.53;5131341;27;20043;-61
2022/03/26 05:32:33;;;;;;;2.72;1.83;;;;;;;22.03;27.78;99866.88;5131463;28;20070;-59
2022/03/26 05:34:58;;;;;;;3.00;2.10;;;;;;;22.01;27.43;99872.84;5131362;28;20410;-59
2022/03/26 05:37:23;;;;;;;3.13;2.20;;;;;;;21.99;27.76;99870.41;5131376;28;20145;-60
2022/03/26 05:39:49;;;;;;;2.85;1.95;;;;;;;22.04;27.93;99874.06;5131783;28;20518;-59
2022/03/26 05:42:15;;;;;;;2.55;1.90;;;;;;;22.09;27.57;99879.34;5131276;28;20039;-59
2022/03/26 05:44:41;;;;;;;2.50;1.92;;;;;;;22.05;27.67;99876.47;5131290;28;20533;-60
2022/03/26 05:47:07;;;;;;;2.88;1.98;;;;;;;22.07;27.84;99887.22;5131212;28;20403;-59
2022/03/26 05:49:33;;;;;;;2.53;1.73;;;;;;;22.04;27.65;99885.19;5131280;28;20494;-59
2022/03/26 05:51:58;;;;;;;3.05;2.13;;;;;;;22.00;27.87;99879.56;5131112;28;20043;-59
2022/03/26 05:54:23;;;;;;;2.72;1.80;;;;;;;22.04;27.55;99885.19;5130940;28;20403;-60
2022/03/26 05:56:52;;;;;;;2.90;2.10;;;;;;;22.04;27.83;99890.78;5131227;28;20448;-59
2022/03/26 05:59:20;;;;;;;2.78;1.88;;;;;;;22.04;27.84;99891.56;5131250;28;20055;-59
2022/03/26 06:01:46;;;;;;;2.83;1.90;;;;;;;22.27;27.41;99890.78;5130976;28;20039;-59
2022/03/26 06:04:11;;;;;;;2.70;2.03;;;;;;;22.51;27.09;99893.97;5130872;28;20454;-60
2022/03/26 06:06:37;;;;;;;3.00;1.85;;;;;;;22.42;27.35;99893.41;5130008;28;20031;-59
2022/03/26 06:09:02;;;;;;;2.90;2.00;;;;;;;22.57;27.03;99899.22;5131059;28;20521;-61
2022/03/26 06:11:28;;;;;;;2.90;2.00;;;;;;;22.56;27.12;99889.25;5131077;28;20047;-61
2022/03/26 06:13:53;;;;;;;3.08;2.10;;;;;;;22.57;27.00;99893.63;5130706;28;20054;-59
2022/03/26 06:16:19;;;;;;;3.10;2.38;;;;;;;22.41;27.18;99899.38;5130778;28;20126;-58
2022/03/26 06:18:44;;;;;;;3.10;2.10;;;;;;;22.27;27.61;99908.31;5130691;28;20130;-59
2022/03/26 06:21:10;;;;;;;2.55;1.80;;;;;;;22.23;27.49;99901.88;5130805;28;20058;-59
2022/03/26 06:23:35;;;;;;;2.78;2.10;;;;;;;22.15;27.64;99900.97;5130724;28;20096;-59
2022/03/26 06:26:01;;;;;;;3.13;2.15;;;;;;;22.15;27.71;99905.72;5130644;28;20155;-59
2022/03/26 06:28:26;;;;;;;2.80;1.90;;;;;;;22.11;27.80;99902.88;5130648;28;20403;-59
2022/03/26 06:30:52;;;;;;;2.90;1.98;;;;;;;22.10;27.95;99904.06;5130752;28;20043;-60
2022/03/26 06:33:18;;;;;;;2.70;1.90;;;;;;;22.10;28.03;99909.63;5130595;28;20495;-59
2022/03/26 06:35:46;;;;;;;3.00;2.28;;;;;;;22.11;28.07;99910.44;5130573;28;20042;-59
2022/03/26 06:38:12;;;;;;;2.85;2.08;;;;;;;22.11;28.14;99910.44;5130570;28;20227;-59
2022/03/26 06:40:40;;;;;;;2.78;1.98;;;;;;;22.10;28.04;99908.81;5130384;28;20400;-59
2022/03/26 06:43:07;;;;;;;3.33;2.20;;;;;;;22.11;28.29;99910.44;5132752;27;20132;-59
2022/03/26 06:45:33;;;;;;;2.78;2.00;;;;;;;22.10;28.29;99917.19;5134471;28;20071;-59
2022/03/26 06:47:59;;;;;;;3.28;2.35;;;;;;;22.08;28.15;99911.97;5134273;28;20395;-60
2022/03/26 06:50:24;;;;;;;2.92;2.15;;;;;;;22.14;28.14;99918.84;5134129;28;20042;-57
2022/03/26 06:52:50;;;;;;;3.22;2.38;;;;;;;22.11;28.30;99907.63;5134009;28;20104;-60
2022/03/26 06:55:16;;;;;;;2.78;1.92;;;;;;;22.08;28.30;99913.94;5134125;28;20049;-60
2022/03/26 06:57:41;;;;;;;3.17;2.17;;;;;;;22.06;28.58;99913.47;5134075;28;20384;-60
2022/03/26 07:00:09;;;;;;;2.95;2.15;;;;;;;22.07;28.58;99909.50;5133947;28;20039;-61
2022/03/26 07:02:35;;;;;;;2.88;2.08;;;;;;;22.11;28.31;99910.44;5133838;28;20100;-60
2022/03/26 07:05:04;;;;;;;3.08;2.20;;;;;;;22.11;28.27;99914.00;5134048;28;20050;-60
2022/03/26 07:07:30;;;;;;;2.95;1.95;;;;;;;22.16;28.19;99912.91;5133932;28;20439;-60
2022/03/26 07:09:56;;;;;;;2.88;2.20;;;;;;;22.16;28.35;99918.47;5133637;28;20054;-60
2022/03/26 07:12:21;;;;;;;2.72;2.00;;;;;;;22.12;28.29;99907.25;5134006;28;20118;-60
2022/03/26 07:14:47;;;;;;;3.47;2.35;;;;;;;22.16;28.19;99904.56;5133576;28;20047;-58
2022/03/26 07:17:12;;;;;;;3.00;2.20;;;;;;;22.14;28.23;99913.25;5133294;28;20035;-58
2022/03/26 07:19:38;;;;;;;3.35;2.33;;;;;;;22.14;28.14;99909.66;5133882;28;20039;-58
2022/03/26 07:22:03;;;;;;;3.13;2.20;;;;;;;22.12;28.31;99915.63;5133580;28;20072;-58
2022/03/26 07:24:29;;;;;;;3.45;2.55;;;;;;;22.10;28.30;99915.19;5133568;28;20043;-58
2022/03/26 07:26:54;;;;;;;2.88;2.00;;;;;;;22.10;28.08;99917.97;5133538;28;20455;-58
2022/03/26 07:29:20;;;;;;;3.70;2.58;;;;;;;22.10;28.00;99911.59;5133478;28;20046;-58
2022/03/26 07:31:46;;;;;;;3.22;2.30;;;;;;;22.08;28.17;99909.19;5133540;28;20044;-58
2022/03/26 07:34:13;;;;;;;3.40;2.30;;;;;;;22.07;28.20;99918.69;5133316;28;20047;-58
2022/03/26 07:36:39;;;;;;;2.78;1.90;;;;;;;22.40;28.00;99917.28;5133269;28;20080;-58
2022/03/26 07:39:04;;;;;;;3.03;2.10;;;;;;;23.16;26.93;99918.03;5133425;28;20043;-58
2022/03/26 07:41:29;;;;;;;3.28;2.28;;;;;;;24.09;25.88;99911.53;5133155;28;20119;-58
2022/03/26 07:43:55;;;;;;;2.95;2.20;;;;;;;23.91;25.86;99915.34;5133244;28;20058;-58
2022/03/26 07:46:21;;;;;;;3.03;2.08;;;;;;;23.52;26.54;99913.72;5133044;28;20059;-58
2022/03/26 07:48:47;;;;;;;3.25;2.33;;;;;;;23.19;26.79;99920.06;5132984;28;20441;-60
2022/03/26 07:51:12;;;;;;;3.00;2.20;;;;;;;22.96;27.09;99919.34;5133117;28;20047;-60
2022/03/26 07:53:41;;;;;;;3.17;2.30;;;;;;;22.77;27.22;99918.25;5132775;27;20035;-60
2022/03/26 07:56:06;;;;;;;2.90;2.10;;;;;;;22.63;27.57;99925.59;5132978;28;20119;-60
2022/03/26 07:58:32;;;;;;;2.90;2.30;;;;;;;22.52;27.86;99926.25;5133059;28;20130;-60
2022/03/26 08:00:57;;;;;;;3.63;2.28;;;;;;;22.44;27.71;99920.94;5132832;28;20062;-60
2022/03/26 08:03:24;;;;;;;3.45;2.38;;;;;;;22.33;27.97;99928.31;5132770;28;20047;-60
2022/03/26 08:05:50;;;;;;;2.67;1.98;;;;;;;22.30;27.90;99927.09;5132855;28;20411;-60
2022/03/26 08:08:15;;;;;;;3.40;2.20;;;;;;;22.24;27.90;99923.81;5132885;28;20043;-60
2022/03/26 08:10:41;;;;;;;3.30;2.30;;;;;;;22.16;28.37;99915.69;5132747;28;20089;-61
2022/03/26 08:13:06;;;;;;;4.07;2.63;;;;;;;22.14;28.11;99921.63;5132636;28;20061;-61
2022/03/26 08:15:32;;;;;;;3.10;2.40;;;;;;;22.10;28.15;99915.19;5132605;28;20502;-60
2022/03/26 08:17:59;;;;;;;3.30;2.38;;;;;;;22.05;28.25;99914.66;5132567;28;20084;-60
2022/03/26 08:20:26;;;;;;;3.28;2.40;;;;;;;22.05;28.26;99912.69;5132692;28;20096;-60
2022/03/26 08:22:52;;;;;;;3.42;2.33;;;;;;;22.02;28.31;99910.66;5132553;28;20079;-60
2022/03/26 08:26:19;;;;;;;3.67;2.60;;;;;;;21.97;28.41;99914.53;5132572;28;20074;-60
2022/03/26 08:28:14;;;;;;;3.35;2.20;;;;;;;21.96;28.78;99920.47;5132260;28;20246;-60
2022/03/26 08:30:40;;;;;;;3.42;2.53;;;;;;;21.93;28.79;99919.25;5132553;28;20085;-60
2022/03/26 08:33:06;;;;;;;3.20;2.40;;;;;;;21.91;28.63;99913.22;5132390;28;20039;-60
2022/03/26 08:35:41;;;;;;;2.97;2.17;;;;;;;21.88;28.64;99918.75;5132234;28;20055;-60
2022/03/26 08:38:08;;;;;;;3.40;2.50;;;;;;;21.87;28.43;99911.56;5132302;28;20067;-61
2022/03/26 08:40:34;;;;;;;3.10;2.50;;;;;;;21.85;28.86;99919.47;5132146;28;20046;-60
2022/03/26 08:43:00;;;;;;;3.72;2.53;;;;;;;21.80;28.75;99923.38;5132157;28;20051;-60
2022/03/26 08:45:26;;;;;;;3.30;2.30;;;;;;;21.77;28.83;99912.97;5132251;28;20388;-60
2022/03/26 08:47:52;;;;;;;3.35;2.38;;;;;;;21.76;28.71;99908.56;5132302;28;20134;-60
2022/03/26 08:50:17;;;;;;;4.00;2.50;;;;;;;21.74;28.61;99908.16;5132172;28;20070;-60
2022/03/26 08:52:43;;;;;;;3.20;2.53;;;;;;;21.75;28.75;99904.19;5132230;28;20039;-60
2022/03/26 08:55:08;;;;;;;4.20;2.65;;;;;;;21.73;28.82;99905.75;5132061;28;20051;-58
2022/03/26 08:57:34;;;;;;;3.47;2.28;;;;;;;21.72;28.76;99904.94;5132242;28;20047;-57
2022/03/26 09:00:00;;;;;;;3.38;2.33;;;;;;;21.70;28.63;99901.69;5132023;28;20039;-58
2022/03/26 09:02:25;;;;;;;3.35;2.35;;;;;;;21.69;28.60;99900.09;5131919;28;20043;-58
2022/03/26 09:04:50;;;;;;;4.20;2.47;;;;;;;21.68;29.01;99895.69;5131254;27;20122;-58
2022/03/26 09:07:16;;;;;;;3.20;2.38;;;;;;;21.66;28.93;99889.69;5131901;28;20040;-58
2022/03/26 09:09:41;;;;;;;3.47;2.33;;;;;;;21.65;28.79;99896.44;5131959;28;20039;-58
2022/03/26 09:12:07;;;;;;;3.30;2.30;;;;;;;21.66;28.88;99892.47;5131904;28;20472;-58
2022/03/26 09:14:32;;;;;;;3.85;2.40;;;;;;;21.64;28.92;99881.69;5131905;28;20075;-58
2022/03/26 09:16:58;;;;;;;3.55;2.40;;;;;;;21.63;28.60;99887.63;5131679;28;20050;-58
2022/03/26 09:19:23;;;;;;;3.03;2.13;;;;;;;21.62;28.90;99881.25;5131650;28;20039;-58
2022/03/26 09:21:49;;;;;;;3.10;2.15;;;;;;;21.59;28.72;99878.44;5131738;28;20035;-58
2022/03/26 09:24:16;;;;;;;3.67;2.40;;;;;;;21.60;28.70;99882.81;5131558;28;20050;-58
2022/03/26 09:26:42;;;;;;;3.40;2.35;;;;;;;21.60;28.62;99880.03;5131452;28;20411;-58
2022/03/26 09:29:07;;;;;;;2.67;2.00;;;;;;;21.61;28.52;99876.06;5131484;28;20042;-58
2022/03/26 09:31:33;;;;;;;3.10;2.20;;;;;;;21.63;28.26;99876.50;5131451;28;20046;-58
2022/03/26 09:33:58;;;;;;;3.50;2.38;;;;;;;21.62;28.45;99866.53;5131408;28;20047;-58
2022/03/26 09:36:23;;;;;;;2.90;2.00;;;;;;;21.60;28.14;99858.56;5131373;28;20047;-58
2022/03/26 09:38:49;;;;;;;3.25;2.25;;;;;;;21.63;28.17;99865.38;5129012;27;20467;-58
2022/03/26 09:41:16;;;;;;;3.35;2.25;;;;;;;21.61;28.01;99859.38;5111172;28;20074;-58
2022/03/26 09:43:42;;;;;;;3.92;2.85;;;;;;;21.61;28.04;99865.75;5131335;28;20047;-58
2022/03/26 09:46:07;;;;;;;3.10;2.28;;;;;;;21.61;27.88;99857.38;5131536;28;20576;-59
2022/03/26 09:48:33;;;;;;;3.30;2.53;;;;;;;21.62;27.94;99855.41;5131540;28;20402;-58
2022/03/26 09:51:00;;;;;;;2.83;1.90;;;;;;;21.64;27.87;99862.19;5131285;28;20063;-58
2022/03/26 09:53:26;;;;;;;3.22;2.28;;;;;;;21.63;27.76;99851.44;5131216;28;20125;-58
2022/03/26 09:55:52;;;;;;;3.40;2.30;;;;;;;21.61;27.61;99849.03;5131137;28;20043;-58
2022/03/26 09:58:17;;;;;;;3.20;2.00;;;;;;;21.61;27.37;99849.03;5131265;28;20392;-57
2022/03/26 10:00:43;;;;;;;2.75;2.10;;;;;;;21.63;27.32;99841.13;5131164;28;20040;-58
2022/03/26 10:03:08;;;;;;;3.10;2.00;;;;;;;21.64;27.22;99845.50;5130922;28;20515;-58
2022/03/26 10:05:35;;;;;;;3.00;2.00;;;;;;;21.65;26.97;99841.56;5131096;28;20046;-58
2022/03/26 10:08:16;;;;;;;3.25;1.90;;;;;;;21.65;26.88;99840.78;5131041;28;20096;-58
2022/03/26 10:10:44;;;;;;;3.45;2.10;;;;;;;21.64;27.14;99836.34;5131076;28;20130;-58
2022/03/26 10:13:09;;;;;;;2.97;2.03;;;;;;;21.65;26.92;99832.41;5130694;28;20047;-58
2022/03/26 10:15:34;;;;;;;2.50;1.80;;;;;;;21.66;26.58;99831.25;5130889;28;20092;-58
2022/03/26 10:18:10;;;;;;;2.70;2.00;;;;;;;21.66;26.71;99831.25;5129799;27;20554;-58
2022/03/26 10:20:35;;;;;;;3.17;2.10;;;;;;;21.67;26.51;99818.91;5130787;28;20050;-58
2022/03/26 10:23:01;;;;;;;3.30;2.20;;;;;;;21.66;26.35;99817.31;5130711;28;20130;-58
2022/03/26 10:25:26;;;;;;;2.80;1.90;;;;;;;21.65;26.42;99810.94;5130732;28;20387;-58
2022/03/26 10:27:57;;;;;;;3.20;2.00;;;;;;;21.69;26.69;99816.56;5130961;28;20047;-60
2022/03/26 10:33:22;;;;;;;2.88;1.98;;;;;;;21.67;26.53;99811.38;5127387;28;20054;-60
2022/03/26 10:35:53;;;;;;;4.20;2.28;;;;;;;21.67;26.46;99802.22;5130671;28;20050;-61
2022/03/26 10:38:19;;;;;;;3.00;2.10;;;;;;;21.68;26.08;99801.03;5130649;28;20039;-60
2022/03/26 10:40:44;;;;;;;2.63;1.80;;;;;;;21.68;26.37;99796.28;5130435;28;20119;-61
2022/03/26 10:43:11;;;;;;;3.65;2.25;;;;;;;21.71;26.22;99795.50;5130273;28;20058;-60
2022/03/26 10:45:46;;;;;;;3.25;1.90;;;;;;;21.71;26.28;99798.31;5130409;28;20043;-61
2022/03/26 10:48:12;;;;;;;2.65;1.83;;;;;;;21.71;25.88;99791.94;5130516;28;20046;-60
2022/03/26 10:50:38;;;;;;;2.72;1.83;;;;;;;21.73;25.94;99786.81;5130363;28;20047;-61
2022/03/26 10:53:09;;;;;;;2.95;2.10;;;;;;;21.71;25.85;99781.59;5130399;28;20085;-60
2022/03/26 10:55:36;;;;;;;2.53;1.80;;;;;;;21.74;26.04;99784.84;5130432;28;20043;-60
2022/03/26 10:58:05;;;;;;;2.92;1.85;;;;;;;21.74;25.79;99776.47;5130091;28;20039;-60
2022/03/26 11:00:30;;;;;;;3.05;2.03;;;;;;;21.74;25.85;99768.94;5129957;28;20118;-61
2022/03/26 11:02:56;;;;;;;2.65;1.83;;;;;;;21.74;25.75;99762.56;5130207;28;20612;-60
2022/03/26 11:05:22;;;;;;;2.78;1.90;;;;;;;21.76;25.82;99757.41;5130205;28;20058;-60
2022/03/26 11:07:50;;;;;;;2.85;2.00;;;;;;;21.76;25.76;99755.44;5130151;28;20552;-60
2022/03/26 11:10:15;;;;;;;3.13;2.03;;;;;;;21.72;25.79;99749.03;5130307;28;20071;-61
2022/03/26 11:12:45;;;;;;;3.20;2.30;;;;;;;21.74;25.62;99748.63;5126103;28;20103;-60
2022/03/26 11:15:22;;;;;;;3.30;2.20;;;;;;;21.76;25.72;99751.84;5130046;28;20529;-61
2022/03/26 11:18:31;;;;;;;3.40;2.00;;;;;;;21.78;25.83;99750.28;5130078;28;20046;-61
2022/03/26 11:21:14;;;;;;;2.92;1.98;;;;;;;21.78;25.61;99747.50;5125740;28;20084;-60
2022/03/26 11:24:18;;;;;;;4.13;2.40;;;;;;;21.79;25.66;99737.16;5129780;28;20066;-60
2022/03/26 11:27:28;;;;;;;3.17;2.17;;;;;;;21.78;25.85;99739.16;5130117;28;20366;-60
2022/03/26 11:30:03;;;;;;;2.58;1.83;;;;;;;21.79;25.62;99731.59;5133286;28;20404;-60
2022/03/26 11:32:43;;;;;;;2.80;1.95;;;;;;;21.80;25.79;99722.09;5129572;28;20041;-60
2022/03/26 11:35:19;;;;;;;2.75;1.85;;;;;;;22.02;25.41;99720.44;5133390;28;20658;-60